Time;durP1;ratioP1;P1;durP2;ratioP2;P2;SDS_P1;SDS_P2;PMS_P1;PMS_P2;Temp;Humidity;BMP_temperature;BMP_pressure;BME280_temperature;BME280_humidity;BME280_pressure;Samples;Min_cycle;Max_cycle;Signal;HPM_P1;HPM_P2
2022/06/16 00:00:18;;;;;;;9.70;8.80;;;;;;;9.35;74.50;99246.37;2235741;79;21398;-82
2022/06/16 00:03:19;;;;;;;13.43;9.13;;;;;;;9.28;74.69;99238.38;2235997;79;21053;-82
2022/06/16 00:06:19;;;;;;;10.63;9.63;;;;;;;9.24;74.65;99237.44;2236605;80;20916;-82
2022/06/16 00:09:20;;;;;;;11.13;9.60;;;;;;;9.19;74.85;99237.75;2236673;79;20962;-82
2022/06/16 00:12:22;;;;;;;10.70;9.70;;;;;;;9.14;75.12;99233.73;2236214;80;21450;-82
2022/06/16 00:15:22;;;;;;;12.30;9.87;;;;;;;9.09;75.50;99238.37;2236476;80;20927;-82
2022/06/16 00:18:25;;;;;;;14.13;9.93;;;;;;;9.08;75.64;99222.29;2236569;79;20920;-82
2022/06/16 00:21:26;;;;;;;13.57;10.00;;;;;;;9.09;75.95;99227.95;2235427;79;20964;-81
2022/06/16 00:24:29;;;;;;;14.37;11.10;;;;;;;9.09;76.54;99224.93;2236767;79;20944;-82
2022/06/16 00:27:30;;;;;;;12.97;11.57;;;;;;;9.09;76.54;99224.93;2237041;79;20928;-82
2022/06/16 00:30:30;;;;;;;17.93;12.33;;;;;;;9.11;76.44;99227.15;2236444;80;20920;-82
2022/06/16 00:33:31;;;;;;;13.27;11.17;;;;;;;9.12;76.51;99224.13;2236621;79;20976;-81
2022/06/16 00:36:32;;;;;;;12.20;11.00;;;;;;;9.10;76.75;99214.09;2236577;80;20904;-82
2022/06/16 00:39:31;;;;;;;18.87;10.60;;;;;;;9.14;76.87;99212.02;2235079;79;21378;-81
2022/06/16 00:42:32;;;;;;;13.60;11.40;;;;;;;9.12;76.75;99213.70;2235160;79;20916;-81
2022/06/16 00:45:32;;;;;;;30.13;11.23;;;;;;;9.13;77.06;99208.95;2236582;79;20987;-81
2022/06/16 00:48:35;;;;;;;13.00;11.63;;;;;;;9.17;77.42;99217.30;2236200;79;21351;-81
2022/06/16 00:51:36;;;;;;;17.40;12.23;;;;;;;9.15;77.67;99205.55;2236447;80;20958;-81
2022/06/16 00:54:36;;;;;;;15.33;11.23;;;;;;;9.20;77.97;99196.53;2235592;79;21021;-82
2022/06/16 00:57:36;;;;;;;172.87;19.93;;;;;;;9.22;77.78;99198.75;2235950;79;20923;-81
2022/06/16 01:00:45;;;;;;;15.60;11.43;;;;;;;9.25;78.25;99194.91;2236593;79;20908;-81
2022/06/16 01:06:59;;;;;;;14.83;10.67;;;;;;;9.25;77.54;99194.48;2236528;80;21042;-81
2022/06/16 01:10:00;;;;;;;16.37;11.30;;;;;;;9.21;77.33;99191.78;2236043;79;20940;-80
2022/06/16 01:16:19;;;;;;;14.17;11.13;;;;;;;9.17;77.51;99191.25;2209276;81;20996;-81
2022/06/16 01:19:19;;;;;;;13.97;10.43;;;;;;;9.12;77.62;99184.64;2209295;79;20917;-81
2022/06/16 01:22:20;;;;;;;11.57;10.47;;;;;;;9.08;77.37;99184.53;2209256;79;21286;-80
2022/06/16 01:25:20;;;;;;;12.70;10.90;;;;;;;9.05;77.58;99183.16;2209046;79;20949;-80
2022/06/16 01:28:21;;;;;;;11.50;10.30;;;;;;;9.03;77.31;99182.25;2208909;79;20968;-81
2022/06/16 01:31:21;;;;;;;14.57;10.43;;;;;;;8.99;77.20;99173.91;2209167;79;20937;-80
2022/06/16 01:34:21;;;;;;;14.37;10.47;;;;;;;8.92;77.21;99172.46;2209272;79;21372;-80
2022/06/16 01:37:22;;;;;;;17.50;10.50;;;;;;;8.89;77.53;99180.20;2209227;79;21002;-80
2022/06/16 01:40:22;;;;;;;31.57;10.90;;;;;;;8.85;77.66;99180.97;2209253;79;20897;-81
2022/06/16 01:43:23;;;;;;;11.33;10.17;;;;;;;8.82;77.48;99184.80;2209053;79;21331;-81
2022/06/16 01:46:23;;;;;;;11.37;9.53;;;;;;;8.78;77.47;99186.87;2209108;79;20921;-81
2022/06/16 01:49:23;;;;;;;13.93;10.33;;;;;;;8.77;77.91;99191.62;2209371;79;20909;-82
2022/06/16 01:52:24;;;;;;;43.50;12.70;;;;;;;8.75;77.92;99185.49;2209227;79;20925;-81
2022/06/16 01:55:24;;;;;;;12.87;10.10;;;;;;;8.76;78.14;99178.14;2209030;79;20948;-80
2022/06/16 01:58:25;;;;;;;11.53;10.33;;;;;;;8.73;77.99;99184.58;2209271;79;20969;-81
2022/06/16 02:01:25;;;;;;;15.67;9.70;;;;;;;8.70;78.11;99178.00;2208979;78;20917;-80
2022/06/16 02:04:25;;;;;;;12.07;10.20;;;;;;;8.69;78.03;99177.95;2209072;79;20956;-81
2022/06/16 02:07:26;;;;;;;11.80;10.57;;;;;;;8.63;77.94;99170.84;2209316;79;20948;-82
2022/06/16 02:10:26;;;;;;;13.37;10.23;;;;;;;8.58;78.19;99175.94;2209311;79;20917;-81
2022/06/16 02:13:29;;;;;;;12.40;9.80;;;;;;;8.59;78.50;99171.20;2230311;79;20964;-81
2022/06/16 02:16:29;;;;;;;13.67;10.27;;;;;;;8.61;78.61;99179.92;2236565;79;20959;-81
2022/06/16 02:19:29;;;;;;;10.67;9.67;;;;;;;8.60;78.51;99173.38;2236453;79;21339;-81
2022/06/16 02:22:31;;;;;;;11.47;10.27;;;;;;;8.56;78.17;99172.42;2236512;79;20892;-82
2022/06/16 02:25:30;;;;;;;12.77;10.60;;;;;;;8.54;78.51;99169.32;2236371;79;20987;-80
2022/06/16 02:28:31;;;;;;;13.13;10.57;;;;;;;8.57;78.62;99178.08;2236545;80;20896;-81
2022/06/16 02:31:31;;;;;;;11.50;9.93;;;;;;;8.58;78.44;99174.64;2236049;78;20943;-81
2022/06/16 02:34:31;;;;;;;819.70;68.23;;;;;;;8.57;78.61;99178.50;2236511;79;20892;-80
2022/06/16 02:37:32;;;;;;;17.87;10.53;;;;;;;8.59;78.94;99179.42;2236417;79;20924;-81
2022/06/16 02:40:32;;;;;;;12.00;9.83;;;;;;;8.61;78.56;99178.62;2236428;80;20908;-81
2022/06/16 02:43:33;;;;;;;10.63;9.57;;;;;;;8.64;78.64;99181.72;2236530;79;21046;-80
2022/06/16 02:46:36;;;;;;;15.33;10.43;;;;;;;8.68;78.52;99191.39;2236415;79;21320;-80
2022/06/16 02:49:33;;;;;;;11.23;9.83;;;;;;;8.74;78.57;99186.76;2236277;79;20927;-80
2022/06/16 02:52:34;;;;;;;11.70;9.73;;;;;;;8.80;78.37;99182.58;2236479;79;20944;-80
2022/06/16 02:55:34;;;;;;;13.20;10.13;;;;;;;8.86;78.39;99187.05;2236359;79;21243;-80
2022/06/16 02:58:35;;;;;;;12.03;9.03;;;;;;;8.94;78.25;99189.00;2236269;79;20951;-80
2022/06/16 03:01:35;;;;;;;12.57;9.10;;;;;;;9.06;78.11;99180.59;2236560;79;20960;-80
2022/06/16 03:04:36;;;;;;;33.90;11.23;;;;;;;9.22;77.98;99185.72;2236312;79;21370;-79
2022/06/16 03:07:39;;;;;;;10.60;9.40;;;;;;;9.34;78.03;99180.78;2236143;79;21315;-79
2022/06/16 03:10:51;;;;;;;10.43;9.27;;;;;;;9.52;78.37;99175.09;2236508;79;20943;-80
2022/06/16 03:13:54;;;;;;;12.77;9.57;;;;;;;9.69;78.32;99168.96;2212770;79;20960;-80
2022/06/16 03:16:54;;;;;;;319.67;26.10;;;;;;;9.86;78.39;99172.78;2209187;79;20917;-80
2022/06/16 03:19:55;;;;;;;45.10;12.37;;;;;;;10.08;78.85;99173.66;2209202;79;20925;-80
2022/06/16 03:22:55;;;;;;;13.40;10.07;;;;;;;10.33;78.78;99174.14;2209224;79;21297;-80
2022/06/16 03:25:58;;;;;;;13.37;10.57;;;;;;;10.55;78.60;99173.69;2208875;79;21336;-81
2022/06/16 03:28:59;;;;;;;13.20;9.40;;;;;;;10.73;78.47;99170.51;2165922;82;21346;-80
2022/06/16 03:31:59;;;;;;;12.13;8.97;;;;;;;10.86;78.22;99165.94;2158946;81;20969;-80
2022/06/16 03:34:59;;;;;;;11.07;9.80;;;;;;;10.97;78.02;99164.36;2129343;84;20924;-80
2022/06/16 03:38:03;;;;;;;9.40;8.50;;;;;;;11.13;77.96;99162.86;2129519;84;21011;-80
2022/06/16 03:41:03;;;;;;;11.90;8.80;;;;;;;11.27;77.68;99162.66;2129129;84;20996;-80
2022/06/16 03:44:03;;;;;;;9.60;8.70;;;;;;;11.36;77.41;99169.33;2129158;84;20936;-80
2022/06/16 03:47:04;;;;;;;9.87;8.87;;;;;;;11.41;77.24;99158.50;2129447;84;20966;-80
2022/06/16 03:50:05;;;;;;;14.03;10.00;;;;;;;11.47;77.26;99154.66;2129228;84;20978;-80
2022/06/16 03:53:04;;;;;;;25.80;9.43;;;;;;;11.55;77.24;99156.06;2158005;82;21576;-81
2022/06/16 03:56:05;;;;;;;12.93;8.67;;;;;;;11.72;77.31;99148.43;2128028;84;21025;-80
2022/06/16 03:59:05;;;;;;;10.50;9.17;;;;;;;11.72;77.31;99148.43;2129068;84;20967;-80
2022/06/16 04:02:06;;;;;;;9.90;7.97;;;;;;;11.84;76.96;99154.27;2129719;82;21035;-80
2022/06/16 04:05:07;;;;;;;9.75;8.40;;;;;;;12.24;76.72;99137.30;2129465;84;21026;-80
2022/06/16 04:08:07;;;;;;;11.97;8.77;;;;;;;12.24;76.72;99137.30;2129902;84;20981;-81
2022/06/16 04:11:28;;;;;;;12.45;8.75;;;;;;;12.55;76.34;99133.21;2129731;84;20962;-81
2022/06/16 04:14:19;;;;;;;10.10;8.43;;;;;;;12.91;75.80;99131.31;2141407;83;21046;-80
2022/06/16 04:17:20;;;;;;;11.05;8.60;;;;;;;13.22;75.35;99128.08;2212521;80;20889;-81
2022/06/16 04:20:21;;;;;;;13.15;8.73;;;;;;;13.42;74.83;99127.31;2212229;80;21295;-81
2022/06/16 04:23:21;;;;;;;8.88;7.85;;;;;;;13.51;73.93;99130.86;2212392;80;20916;-81
2022/06/16 04:26:21;;;;;;;14.00;7.90;;;;;;;13.60;73.74;99125.64;2211711;80;20956;-82
2022/06/16 04:29:23;;;;;;;10.95;7.42;;;;;;;13.88;78.45;99128.41;2212207;80;21347;-82
2022/06/16 04:32:22;;;;;;;13.58;8.43;;;;;;;15.05;78.25;99125.92;2212252;80;21019;-83
2022/06/16 04:35:22;;;;;;;11.35;7.42;;;;;;;15.98;75.54;99118.20;2212661;80;20948;-82
2022/06/16 04:38:23;;;;;;;7.90;6.87;;;;;;;16.62;72.94;99114.71;2212486;80;21249;-82
2022/06/16 04:41:23;;;;;;;11.18;7.00;;;;;;;17.10;71.69;99108.15;2212213;80;20968;-81
2022/06/16 04:44:24;;;;;;;10.60;7.35;;;;;;;17.48;68.79;99105.56;2212339;80;20961;-80
2022/06/16 04:47:25;;;;;;;9.65;6.72;;;;;;;16.91;65.61;99110.53;2212140;80;20924;-81
2022/06/16 04:50:24;;;;;;;9.35;6.92;;;;;;;16.28;65.80;99106.16;2211930;80;20889;-81
2022/06/16 04:53:25;;;;;;;7.75;6.30;;;;;;;15.87;66.45;99107.73;2211982;80;20949;-81
2022/06/16 04:56:25;;;;;;;13.10;6.83;;;;;;;15.71;67.29;99106.92;2212504;80;20944;-81
2022/06/16 04:59:25;;;;;;;20.10;8.80;;;;;;;15.88;67.17;99111.67;2212651;80;20967;-83
2022/06/16 05:02:26;;;;;;;9.48;6.85;;;;;;;16.20;69.70;99106.66;2211538;80;20984;-83
2022/06/16 05:05:26;;;;;;;9.05;6.72;;;;;;;17.50;68.90;99109.06;2211138;80;21039;-83
2022/06/16 05:08:27;;;;;;;8.60;6.78;;;;;;;18.52;66.21;99107.70;2211782;80;20988;-84
2022/06/16 05:11:27;;;;;;;17.23;7.47;;;;;;;19.31;62.65;99100.20;2210892;80;21003;-83
2022/06/16 05:14:27;;;;;;;12.55;6.50;;;;;;;19.95;61.20;99097.61;2219379;80;20995;-84
2022/06/16 05:17:28;;;;;;;9.75;6.72;;;;;;;20.41;57.89;99098.78;2221293;79;21006;-84
2022/06/16 05:20:30;;;;;;;8.98;5.67;;;;;;;20.67;56.20;99095.50;2202859;80;21011;-85
2022/06/16 05:23:31;;;;;;;13.20;6.22;;;;;;;20.86;54.75;99096.80;2222717;79;20999;-84
2022/06/16 05:26:31;;;;;;;8.65;5.40;;;;;;;20.96;53.54;99097.44;2222780;80;21362;-84
2022/06/16 05:29:31;;;;;;;8.03;5.15;;;;;;;21.20;52.49;99095.91;2222727;80;20955;-84
2022/06/16 05:32:32;;;;;;;11.50;5.58;;;;;;;21.37;52.29;99099.02;2223181;78;21027;-84
2022/06/16 05:35:32;;;;;;;6.75;5.20;;;;;;;21.54;50.77;99095.42;2223369;80;20983;-84
2022/06/16 05:38:33;;;;;;;10.45;5.40;;;;;;;21.66;50.47;99093.33;2222722;80;21303;-84
2022/06/16 05:41:33;;;;;;;10.32;4.80;;;;;;;21.76;49.41;99094.37;2221190;80;20951;-84
2022/06/16 05:44:33;;;;;;;8.55;4.58;;;;;;;21.73;48.96;99094.92;2221864;80;21003;-83
2022/06/16 05:47:36;;;;;;;13.38;4.80;;;;;;;21.70;48.09;99097.22;2221949;79;21351;-84
2022/06/16 05:50:36;;;;;;;8.48;4.58;;;;;;;21.61;47.74;99093.00;2213683;80;20999;-88
2022/06/16 05:53:37;;;;;;;6.95;4.28;;;;;;;21.77;47.26;99088.61;2235734;79;20978;-85
2022/06/16 05:56:37;;;;;;;7.58;5.03;;;;;;;21.82;46.32;99087.55;2236412;80;21981;-84
2022/06/16 05:59:37;;;;;;;7.15;4.42;;;;;;;22.00;47.07;99082.14;2235881;79;20998;-84
2022/06/16 06:02:38;;;;;;;9.80;4.65;;;;;;;22.09;45.68;99077.91;2236251;78;21084;-83
2022/06/16 06:05:38;;;;;;;6.42;4.20;;;;;;;22.13;45.82;99072.91;2237053;79;20959;-85
2022/06/16 06:18:37;;;;;;;8.53;4.17;;;;;;;22.25;45.73;99080.49;2215191;80;20994;-85
2022/06/16 06:25:00;;;;;;;7.17;3.77;;;;;;;22.33;46.03;99070.94;2237023;80;21307;-85
2022/06/16 06:27:57;;;;;;;7.47;4.50;;;;;;;22.49;45.98;99068.66;2237262;79;20928;-84
2022/06/16 06:31:01;;;;;;;4.90;3.98;;;;;;;22.60;45.46;99070.53;2237199;79;20920;-84
2022/06/16 06:34:01;;;;;;;7.92;4.25;;;;;;;22.71;45.40;99064.39;2237190;80;21014;-83
2022/06/16 06:37:02;;;;;;;10.43;4.25;;;;;;;22.76;45.35;99058.45;2236884;79;20912;-83
2022/06/16 06:40:02;;;;;;;15.70;4.53;;;;;;;22.70;45.48;99059.99;2236918;79;21303;-84
2022/06/16 06:43:03;;;;;;;13.03;4.87;;;;;;;22.82;45.51;99058.27;2236758;79;20979;-85
2022/06/16 06:46:03;;;;;;;9.13;4.20;;;;;;;22.98;45.34;99050.63;2237493;79;20960;-84
2022/06/16 06:49:03;;;;;;;5.15;3.40;;;;;;;23.17;45.19;99055.70;2236943;79;20991;-82
2022/06/16 06:52:04;;;;;;;8.58;4.35;;;;;;;23.45;45.09;99045.41;2236651;79;21370;-82
2022/06/16 06:55:08;;;;;;;8.35;4.05;;;;;;;23.59;45.10;99048.92;2236611;80;20900;-82
2022/06/16 06:58:09;;;;;;;8.28;3.90;;;;;;;23.67;44.73;99050.84;2236104;79;20931;-81
2022/06/16 07:01:15;;;;;;;5.80;3.60;;;;;;;23.69;44.79;99043.66;2236502;80;20983;-81
2022/06/16 07:04:15;;;;;;;9.35;4.35;;;;;;;23.85;45.21;99039.47;2237794;78;21386;-82
2022/06/16 07:07:18;;;;;;;6.28;3.83;;;;;;;23.98;45.20;99034.06;2236542;79;20939;-80
2022/06/16 07:10:18;;;;;;;7.33;3.45;;;;;;;24.20;44.80;99040.73;2236754;79;20939;-81
2022/06/16 07:13:23;;;;;;;7.90;3.85;;;;;;;24.17;44.06;99032.86;2227569;79;21297;-80
2022/06/16 07:16:22;;;;;;;10.70;4.10;;;;;;;24.31;43.72;99033.70;2209199;81;21308;-80
2022/06/16 07:19:23;;;;;;;4.20;3.58;;;;;;;24.51;44.04;99028.88;2209097;79;20996;-79
2022/06/16 07:22:23;;;;;;;6.40;3.77;;;;;;;24.65;43.98;99027.36;2209408;79;20925;-79
2022/06/16 07:25:23;;;;;;;5.20;3.80;;;;;;;24.91;43.56;99027.58;2209369;79;21300;-79
2022/06/16 07:28:24;;;;;;;6.22;3.60;;;;;;;25.16;43.21;99031.44;2209435;79;20925;-80
2022/06/16 07:31:24;;;;;;;6.65;3.40;;;;;;;25.40;42.16;99026.33;2209065;81;20956;-79
2022/06/16 07:34:25;;;;;;;6.00;3.20;;;;;;;25.52;42.21;99022.70;2209450;79;21027;-81
2022/06/16 07:37:25;;;;;;;6.83;3.35;;;;;;;25.60;41.66;99017.39;2209406;79;20996;-80
2022/06/16 07:40:25;;;;;;;5.78;3.40;;;;;;;25.45;42.02;99018.57;2209222;79;20902;-81
2022/06/16 07:43:26;;;;;;;8.03;3.37;;;;;;;25.42;42.07;99012.03;2208980;79;20976;-79
2022/06/16 07:46:26;;;;;;;6.80;3.25;;;;;;;25.62;41.47;99005.30;2209455;79;20992;-79
2022/06/16 07:49:29;;;;;;;10.35;3.58;;;;;;;25.77;40.84;99005.94;2209715;79;20936;-84
2022/06/16 07:52:27;;;;;;;4.97;3.60;;;;;;;25.58;40.31;99010.38;2209659;79;20952;-84
2022/06/16 07:55:28;;;;;;;5.85;3.58;;;;;;;25.32;40.70;99015.13;2209687;79;20941;-84
2022/06/16 07:58:30;;;;;;;8.95;3.85;;;;;;;25.20;40.84;99011.67;2209938;79;20905;-84
2022/06/16 08:01:28;;;;;;;4.87;3.02;;;;;;;25.12;40.50;99015.58;2210021;79;20989;-84
2022/06/16 08:04:29;;;;;;;6.97;3.45;;;;;;;25.13;40.73;99011.51;2209872;79;20972;-84
2022/06/16 08:07:29;;;;;;;5.30;3.40;;;;;;;25.20;40.26;99004.13;2210126;79;21184;-84
2022/06/16 08:10:33;;;;;;;5.85;4.17;;;;;;;25.33;39.68;99002.16;2210340;79;21015;-84
2022/06/16 08:13:30;;;;;;;4.92;3.00;;;;;;;25.38;39.87;99000.61;2219333;79;20994;-84
2022/06/16 08:16:32;;;;;;;9.00;3.40;;;;;;;25.33;40.15;98994.14;2237332;79;20960;-83
2022/06/16 08:19:31;;;;;;;9.83;3.55;;;;;;;25.43;40.09;98999.06;2237335;80;20920;-83
2022/06/16 08:22:33;;;;;;;4.83;3.15;;;;;;;25.44;40.22;98992.78;2237435;79;21275;-83
2022/06/16 08:25:33;;;;;;;7.65;3.17;;;;;;;25.55;40.01;98983.33;2237737;79;20940;-84
2022/06/16 08:28:33;;;;;;;5.67;3.20;;;;;;;25.75;40.13;98990.44;2238010;79;20912;-84
2022/06/16 08:31:33;;;;;;;5.75;3.05;;;;;;;25.81;40.02;98988.81;2237692;79;20947;-84
2022/06/16 08:34:34;;;;;;;5.92;3.30;;;;;;;25.87;39.14;98987.19;2237156;79;20976;-84
2022/06/16 08:37:34;;;;;;;7.05;3.17;;;;;;;25.78;38.38;98990.77;2237811;80;20959;-84
2022/06/16 08:40:35;;;;;;;6.58;3.22;;;;;;;25.61;38.37;98995.07;2237532;79;21319;-84
2022/06/16 08:43:36;;;;;;;4.60;3.12;;;;;;;25.64;38.98;98994.06;2237212;80;21146;-85
2022/06/16 08:46:36;;;;;;;3.92;2.90;;;;;;;25.74;39.25;98993.19;2237310;79;21342;-85
2022/06/16 08:49:39;;;;;;;8.48;3.42;;;;;;;25.80;39.82;98989.75;2238236;79;20967;-83
2022/06/16 08:52:41;;;;;;;4.85;3.08;;;;;;;25.87;39.49;98992.53;2237454;80;20947;-83
2022/06/16 08:55:41;;;;;;;4.78;3.10;;;;;;;25.94;39.57;98996.64;2237956;80;20983;-83
2022/06/16 08:58:42;;;;;;;8.00;3.33;;;;;;;26.13;39.49;98995.31;2237448;79;20927;-83
2022/06/16 09:01:42;;;;;;;5.78;3.10;;;;;;;26.13;38.95;99001.13;2237694;79;20956;-83
2022/06/16 09:04:43;;;;;;;5.53;3.17;;;;;;;26.25;38.88;98992.50;2237433;79;20991;-83
2022/06/16 09:07:43;;;;;;;4.70;3.10;;;;;;;26.15;38.36;98994.77;2237417;79;20927;-84
2022/06/16 09:10:43;;;;;;;3.98;3.08;;;;;;;26.35;38.35;98991.14;2237271;79;21306;-82
2022/06/16 09:13:44;;;;;;;3.72;2.90;;;;;;;26.54;38.07;98985.25;2228311;79;20960;-82
2022/06/16 09:16:45;;;;;;;5.75;3.50;;;;;;;26.40;38.21;98978.39;2210225;79;20922;-84
2022/06/16 09:19:45;;;;;;;6.75;3.42;;;;;;;26.48;38.49;98976.66;2209998;79;20940;-84
2022/06/16 09:22:45;;;;;;;5.97;3.08;;;;;;;26.61;38.59;98977.30;2210320;79;20968;-82
2022/06/16 09:25:45;;;;;;;4.05;2.85;;;;;;;26.58;37.87;98980.13;2210042;79;20964;-84
2022/06/16 09:28:46;;;;;;;3.20;2.90;;;;;;;26.57;38.19;98977.06;2209748;81;20917;-83
2022/06/16 09:31:47;;;;;;;3.98;2.90;;;;;;;26.72;38.03;98974.55;2209940;79;20970;-83
2022/06/16 09:34:47;;;;;;;4.78;2.98;;;;;;;26.76;37.88;98972.09;2209796;79;21004;-84
2022/06/16 09:37:47;;;;;;;4.10;2.75;;;;;;;26.98;37.33;98971.43;2209426;79;20964;-84
2022/06/16 09:40:47;;;;;;;4.28;2.70;;;;;;;27.31;37.80;98964.73;2210347;81;21297;-85
2022/06/16 09:43:48;;;;;;;3.83;2.70;;;;;;;27.51;36.26;98956.94;2210104;79;20972;-84
2022/06/16 09:46:48;;;;;;;3.70;2.62;;;;;;;27.35;36.44;98960.07;2210233;81;21005;-85
2022/06/16 09:49:49;;;;;;;4.45;2.83;;;;;;;27.27;36.48;98956.00;2210357;79;21296;-85
2022/06/16 09:52:49;;;;;;;3.67;2.65;;;;;;;27.23;36.26;98957.11;2210012;79;20977;-84
2022/06/16 09:55:50;;;;;;;6.20;2.62;;;;;;;27.36;36.59;98961.33;2210181;79;20968;-84
2022/06/16 09:58:50;;;;;;;5.15;2.87;;;;;;;27.49;36.43;98951.66;2209425;79;20984;-84
2022/06/16 10:01:50;;;;;;;5.28;3.00;;;;;;;27.32;36.07;98957.09;2209500;79;20975;-84
2022/06/16 10:04:51;;;;;;;4.40;2.98;;;;;;;27.02;36.40;98951.57;2210223;79;20981;-83
2022/06/16 10:07:51;;;;;;;8.28;2.70;;;;;;;27.22;35.30;98946.48;2211072;79;20981;-84
2022/06/16 10:10:52;;;;;;;3.90;2.67;;;;;;;27.22;35.30;98946.48;2211111;79;20909;-84
2022/06/16 10:13:52;;;;;;;4.80;2.80;;;;;;;27.39;35.25;98942.88;2210895;79;21403;-84
2022/06/16 10:16:55;;;;;;;7.92;2.95;;;;;;;27.66;34.65;98931.12;2211346;79;20960;-84
2022/06/16 10:19:56;;;;;;;5.47;2.60;;;;;;;27.56;34.65;98937.44;2210960;79;20941;-84
2022/06/16 10:22:56;;;;;;;3.75;2.70;;;;;;;27.84;34.41;98932.31;2211210;79;20993;-84
2022/06/16 10:25:56;;;;;;;5.45;2.33;;;;;;;28.20;34.37;98936.03;2210968;79;21434;-84
2022/06/16 10:28:56;;;;;;;4.10;2.30;;;;;;;28.41;32.72;98935.27;2211104;79;20929;-84
2022/06/16 10:31:57;;;;;;;3.80;2.35;;;;;;;28.03;33.10;98933.94;2210773;79;20917;-83
2022/06/16 10:34:57;;;;;;;2.72;2.50;;;;;;;27.83;33.38;98936.42;2210648;81;21007;-85
2022/06/16 10:37:58;;;;;;;2.77;2.40;;;;;;;27.98;33.82;98931.52;2210325;79;20894;-84
2022/06/16 10:40:58;;;;;;;4.58;2.70;;;;;;;28.31;33.75;98935.43;2210304;81;20965;-84
2022/06/16 10:43:58;;;;;;;3.92;2.47;;;;;;;28.34;33.09;98939.75;2210168;79;20991;-84
2022/06/16 10:46:59;;;;;;;3.35;2.47;;;;;;;28.48;33.31;98934.43;2210113;79;20944;-83
2022/06/16 10:49:59;;;;;;;5.22;2.58;;;;;;;28.59;33.15;98930.62;2210522;79;20928;-83
2022/06/16 10:53:00;;;;;;;3.15;2.58;;;;;;;28.76;33.53;98934.53;2210242;79;20952;-83
2022/06/16 10:56:01;;;;;;;5.40;2.60;;;;;;;29.02;33.56;98922.69;2210304;79;21296;-82
2022/06/16 10:59:01;;;;;;;3.87;2.30;;;;;;;28.88;32.29;98930.73;2210157;79;20944;-84
2022/06/16 11:02:04;;;;;;;3.42;2.37;;;;;;;28.97;33.33;98933.72;2209490;79;20989;-84
2022/06/16 11:05:04;;;;;;;;;;;;;;;29.20;32.75;98934.98;2212219;79;20995;-84
2022/06/16 11:08:04;;;;;;;4.75;2.05;;;;;;;29.30;31.99;98937.95;2208289;81;20138;-83
2022/06/16 11:11:05;;;;;;;3.15;2.60;;;;;;;29.43;32.33;98928.18;2208741;79;20979;-82
2022/06/16 11:14:05;;;;;;;3.10;2.40;;;;;;;29.73;31.94;98925.37;2209172;79;20992;-83
2022/06/16 11:17:05;;;;;;;12.53;2.52;;;;;;;29.96;31.38;98920.69;2209561;79;20897;-85
2022/06/16 11:20:06;;;;;;;3.20;2.80;;;;;;;29.82;31.11;98914.01;2208202;81;20929;-83
2022/06/16 11:23:06;;;;;;;4.00;3.62;;;;;;;29.52;31.67;98911.48;2208305;79;21281;-85
2022/06/16 11:26:09;;;;;;;3.80;2.50;;;;;;;29.73;31.92;98906.53;2208312;79;20999;-83
2022/06/16 11:29:09;;;;;;;6.62;3.08;;;;;;;29.97;31.83;98906.27;2208201;79;21027;-84
2022/06/16 11:32:08;;;;;;;3.12;2.80;;;;;;;29.93;31.29;98907.91;2207682;79;20992;-84
2022/06/16 11:35:08;;;;;;;1024.10;682.75;;;;;;;29.16;29.06;98899.84;2209379;79;21007;-85
2022/06/16 11:38:08;;;;;;;9.25;5.03;;;;;;;28.49;29.01;98894.55;2210043;79;21324;-83
2022/06/16 11:41:09;;;;;;;164.77;111.92;;;;;;;28.11;30.38;98894.11;2209437;79;20924;-84
2022/06/16 11:44:09;;;;;;;40.48;25.68;;;;;;;27.64;29.02;98889.64;2208924;79;21003;-84
2022/06/16 11:47:12;;;;;;;3.42;2.55;;;;;;;27.32;29.79;98891.90;2210040;79;20932;-83
2022/06/16 11:50:12;;;;;;;124.87;101.07;;;;;;;27.16;30.62;98882.50;2197064;81;20930;-83
2022/06/16 11:53:12;;;;;;;6.85;3.10;;;;;;;27.33;30.42;98880.23;2208823;79;20949;-84
2022/06/16 11:56:13;;;;;;;7.30;4.62;;;;;;;27.60;31.70;98874.66;2208547;79;21377;-84
2022/06/16 11:59:16;;;;;;;3.20;2.80;;;;;;;28.05;32.10;98864.95;2208214;79;20929;-84
2022/06/16 12:02:13;;;;;;;509.37;324.37;;;;;;;28.28;32.54;98861.80;2208637;81;20964;-83
2022/06/16 12:05:14;;;;;;;7.78;5.28;;;;;;;28.52;32.90;98857.63;2209851;79;21011;-85
2022/06/16 12:08:14;;;;;;;10.30;7.28;;;;;;;28.79;33.40;98852.41;2210685;79;20940;-85
2022/06/16 12:11:15;;;;;;;126.85;76.87;;;;;;;29.07;33.31;98838.61;2209910;79;20956;-83
2022/06/16 12:14:15;;;;;;;34.13;25.00;;;;;;;29.26;32.66;98827.55;2210563;79;20957;-84
2022/06/16 12:17:15;;;;;;;5.30;4.00;;;;;;;28.99;33.42;98827.48;2210711;79;21367;-84
2022/06/16 12:20:17;;;;;;;345.48;255.80;;;;;;;28.69;33.83;98820.84;2210993;79;20940;-84
2022/06/16 12:23:16;;;;;;;8.13;4.95;;;;;;;28.39;34.55;98819.06;2210944;79;20948;-85
2022/06/16 12:26:18;;;;;;;5.10;3.45;;;;;;;28.25;35.04;98806.97;2210665;79;21008;-84
2022/06/16 12:29:17;;;;;;;9.30;6.35;;;;;;;28.27;34.96;98794.80;2210813;81;20921;-86
2022/06/16 12:32:18;;;;;;;35.10;21.10;;;;;;;28.18;35.58;98794.84;2210918;79;21300;-85
2022/06/16 12:35:18;;;;;;;3.60;2.77;;;;;;;28.33;35.63;98789.05;2210013;79;21000;-83
2022/06/16 12:38:18;;;;;;;25.82;19.87;;;;;;;28.11;36.22;98788.98;2210524;79;20897;-84
2022/06/16 12:41:20;;;;;;;16.12;14.53;;;;;;;28.05;36.44;98792.52;2211237;79;20960;-84
2022/06/16 12:44:19;;;;;;;291.65;205.60;;;;;;;27.86;36.88;98790.06;2211035;81;20960;-84
2022/06/16 12:47:20;;;;;;;324.12;171.13;;;;;;;27.59;37.64;98787.13;2211214;79;20917;-84
2022/06/16 12:50:20;;;;;;;205.30;123.28;;;;;;;27.40;38.04;98781.10;2210670;79;21077;-84
2022/06/16 12:53:20;;;;;;;8.85;7.10;;;;;;;27.32;38.62;98779.34;2210597;79;20964;-84
2022/06/16 12:56:21;;;;;;;312.12;188.62;;;;;;;27.12;38.97;98771.95;2211069;79;20999;-84
2022/06/16 12:59:22;;;;;;;10.45;5.00;;;;;;;26.83;39.99;98766.83;2211243;79;20921;-84
2022/06/16 13:02:22;;;;;;;9.93;3.80;;;;;;;26.57;40.70;98763.38;2210227;79;20937;-80
2022/06/16 13:05:22;;;;;;;24.15;4.28;;;;;;;26.39;41.52;98760.36;2209740;79;20961;-80
2022/06/16 13:08:22;;;;;;;9.73;3.42;;;;;;;26.26;43.98;98763.66;2209839;79;20932;-80
2022/06/16 13:11:23;;;;;;;5.37;3.40;;;;;;;26.00;46.84;98773.02;2209102;79;20996;-79
2022/06/16 13:14:23;;;;;;;4.97;3.75;;;;;;;25.65;46.30;98784.62;2216824;79;21019;-80
2022/06/16 13:17:25;;;;;;;6.53;3.45;;;;;;;25.27;46.76;98790.05;2236747;79;20952;-80
2022/06/16 13:20:26;;;;;;;6.67;4.53;;;;;;;24.87;47.84;98804.84;2236819;79;20968;-80
2022/06/16 13:23:24;;;;;;;5.53;4.30;;;;;;;24.49;49.29;98814.14;2237448;79;20971;-81
2022/06/16 13:26:25;;;;;;;5.25;4.15;;;;;;;23.87;52.68;98831.02;2237907;79;21000;-81
2022/06/16 13:29:25;;;;;;;7.17;3.45;;;;;;;22.92;56.43;98835.24;2237680;79;20999;-81
2022/06/16 13:32:26;;;;;;;6.67;3.65;;;;;;;22.21;56.23;98842.22;2237709;79;20940;-81
2022/06/16 13:35:26;;;;;;;5.15;3.80;;;;;;;21.67;56.98;98855.53;2236912;80;20959;-81
2022/06/16 13:38:26;;;;;;;5.55;4.17;;;;;;;21.37;57.80;98875.97;2237525;79;20938;-80
2022/06/16 13:41:27;;;;;;;6.17;4.17;;;;;;;21.23;59.61;98873.74;2238471;79;20916;-81
2022/06/16 13:44:29;;;;;;;7.50;3.45;;;;;;;21.00;65.92;98931.91;2237597;79;20967;-80
2022/06/16 13:47:28;;;;;;;9.28;5.30;;;;;;;20.80;62.27;98911.23;2237278;79;20928;-81
2022/06/16 13:50:28;;;;;;;8.25;4.40;;;;;;;20.63;63.12;98899.77;2236729;80;20987;-81
2022/06/16 13:53:28;;;;;;;10.05;5.40;;;;;;;20.54;64.05;98902.67;2236901;79;21276;-80
2022/06/16 13:56:29;;;;;;;4.62;4.22;;;;;;;20.39;66.56;98904.84;2237803;79;20975;-81
2022/06/16 13:59:29;;;;;;;10.13;4.67;;;;;;;20.01;67.45;98890.80;2237437;79;20947;-80
2022/06/16 14:02:30;;;;;;;6.33;3.77;;;;;;;19.75;66.06;98890.55;2237368;79;20947;-80
2022/06/16 14:05:30;;;;;;;4.42;3.77;;;;;;;19.58;69.41;98873.30;2237260;79;20991;-79
2022/06/16 14:08:31;;;;;;;4.95;4.30;;;;;;;19.33;68.23;98873.42;2237401;79;21373;-80
2022/06/16 14:11:31;;;;;;;6.47;4.50;;;;;;;19.18;69.48;98884.35;2236924;79;20994;-80
2022/06/16 14:14:31;;;;;;;7.37;3.47;;;;;;;19.11;70.14;98886.72;2230988;79;21008;-79
2022/06/16 14:17:32;;;;;;;8.03;3.85;;;;;;;19.01;70.55;98877.62;2209735;81;20913;-79
2022/06/16 14:20:32;;;;;;;11.70;3.90;;;;;;;19.01;71.12;98870.14;2209985;81;20980;-80
2022/06/16 14:23:33;;;;;;;4.80;3.10;;;;;;;18.97;71.69;98882.55;2209939;79;20953;-81